Time;durP1;ratioP1;P1;durP2;ratioP2;P2;SDS_P1;SDS_P2;PMS_P1;PMS_P2;Temp;Humidity;BMP_temperature;BMP_pressure;BME280_temperature;BME280_humidity;BME280_pressure;Samples;Min_cycle;Max_cycle;Signal;HPM_P1;HPM_P2
2024/03/02 00:01:24;;;;;;;;;;;9.00;99.90;;;;;;4945837;28;19954;-79
2024/03/02 00:03:50;;;;;;;;;;;9.00;99.90;;;;;;4987241;28;19918;-79
2024/03/02 00:06:18;;;;;;;;;;;9.00;99.90;;;;;;4977996;28;19918;-79
2024/03/02 00:08:44;;;;;;;;;;;9.10;99.90;;;;;;4961693;28;20009;-79
2024/03/02 00:11:11;;;;;;;;;;;9.10;99.90;;;;;;4978235;28;19945;-79
2024/03/02 00:13:37;;;;;;;;;;;9.10;99.90;;;;;;4972291;28;19925;-79
2024/03/02 00:16:05;;;;;;;;;;;9.10;99.90;;;;;;4951539;28;19985;-79
2024/03/02 00:18:32;;;;;;;;;;;9.10;99.90;;;;;;4978665;28;19988;-79
2024/03/02 00:20:58;;;;;;;;;;;9.10;99.90;;;;;;4963674;28;19917;-79
2024/03/02 00:23:24;;;;;;;;;;;9.10;99.90;;;;;;4946242;28;19948;-80
2024/03/02 00:25:53;;;;;;;;;;;9.10;99.90;;;;;;4943264;28;19914;-79
2024/03/02 00:28:20;;;;;;;;;;;9.10;99.90;;;;;;4974226;28;19920;-80
2024/03/02 00:30:56;;;;;;;;;;;9.10;99.90;;;;;;4959769;28;19918;-80
2024/03/02 00:33:21;;;;;;;;;;;9.10;99.90;;;;;;4971487;28;19918;-80
2024/03/02 00:35:47;;;;;;;;;;;9.10;99.90;;;;;;4944234;28;19929;-80
2024/03/02 00:38:15;;;;;;;;;;;9.10;99.90;;;;;;4971857;28;19920;-79
2024/03/02 00:40:41;;;;;;;;;;;9.00;99.90;;;;;;4960700;28;19918;-80
2024/03/02 00:43:10;;;;;;;;;;;9.00;99.90;;;;;;4962944;28;19921;-79
2024/03/02 00:45:36;;;;;;;;;;;9.00;99.90;;;;;;4962570;28;19939;-79
2024/03/02 00:48:01;;;;;;;;;;;9.00;99.90;;;;;;4946875;28;20326;-80
2024/03/02 00:50:27;;;;;;;;;;;8.90;99.90;;;;;;4963060;28;19914;-80
2024/03/02 00:52:53;;;;;;;;;;;8.90;99.90;;;;;;4946437;28;19928;-80
2024/03/02 00:55:18;;;;;;;;;;;8.90;99.90;;;;;;4946366;28;19929;-80
2024/03/02 00:57:45;;;;;;;;;;;8.90;99.90;;;;;;4952652;28;19952;-80
2024/03/02 01:00:15;;;;;;;;;;;8.90;99.90;;;;;;4961152;28;19918;-80
2024/03/02 01:02:42;;;;;;;;;;;8.90;99.90;;;;;;4963085;28;19921;-80
2024/03/02 01:05:08;;;;;;;;;;;8.90;99.90;;;;;;4995015;28;19929;-80
2024/03/02 01:07:33;;;;;;;;;;;8.80;99.90;;;;;;4965314;28;19925;-80
2024/03/02 01:09:59;;;;;;;;;;;8.80;99.90;;;;;;4965951;28;19918;-80
2024/03/02 01:12:25;;;;;;;;;;;8.80;99.90;;;;;;4973082;28;19943;-80
2024/03/02 01:14:50;;;;;;;;;;;8.80;99.90;;;;;;4962496;28;20081;-80
2024/03/02 01:17:16;;;;;;;;;;;8.80;99.90;;;;;;4964542;28;19921;-80
2024/03/02 01:19:42;;;;;;;;;;;8.80;99.90;;;;;;4981995;28;20009;-80
2024/03/02 01:22:07;;;;;;;;;;;8.70;99.90;;;;;;4980835;28;19928;-79
2024/03/02 01:24:33;;;;;;;;;;;8.70;99.90;;;;;;4965469;28;19993;-80
2024/03/02 01:26:59;;;;;;;;;;;8.70;99.90;;;;;;4997795;28;19918;-79
2024/03/02 01:29:25;;;;;;;;;;;8.70;99.90;;;;;;4965276;28;19929;-79
2024/03/02 01:31:51;;;;;;;;;;;8.70;99.90;;;;;;4949388;28;19937;-79
2024/03/02 01:34:17;;;;;;;;;;;8.70;99.90;;;;;;4967542;28;19913;-80
2024/03/02 01:36:42;;;;;;;;;;;8.70;99.90;;;;;;4999506;28;20658;-80
2024/03/02 01:39:09;;;;;;;;;;;8.60;99.90;;;;;;4946040;28;19925;-80
2024/03/02 01:41:35;;;;;;;;;;;8.70;99.90;;;;;;4969583;28;20326;-80
2024/03/02 01:44:00;;;;;;;;;;;8.60;99.90;;;;;;4967128;28;19933;-80
2024/03/02 01:46:26;;;;;;;;;;;8.60;99.90;;;;;;4951473;28;19948;-80
2024/03/02 01:48:51;;;;;;;;;;;8.60;99.90;;;;;;4966296;28;19918;-80
2024/03/02 01:51:17;;;;;;;;;;;8.60;99.90;;;;;;4981774;28;20335;-80
2024/03/02 01:53:43;;;;;;;;;;;8.60;99.90;;;;;;4965944;28;19924;-80
2024/03/02 01:56:08;;;;;;;;;;;8.60;99.90;;;;;;4982233;28;19918;-80
2024/03/02 01:58:34;;;;;;;;;;;8.60;99.90;;;;;;4946868;28;19922;-80
2024/03/02 02:01:00;;;;;;;;;;;8.60;99.90;;;;;;4963167;28;19925;-79
2024/03/02 02:03:25;;;;;;;;;;;8.60;99.90;;;;;;4950483;28;19925;-80
2024/03/02 02:05:51;;;;;;;;;;;8.50;99.90;;;;;;4961184;28;19953;-80
2024/03/02 02:08:18;;;;;;;;;;;8.50;99.90;;;;;;4946308;28;19914;-79
2024/03/02 02:10:43;;;;;;;;;;;8.60;99.90;;;;;;4944880;28;19918;-80
2024/03/02 02:13:09;;;;;;;;;;;8.50;99.90;;;;;;4978326;28;19966;-80
2024/03/02 02:15:36;;;;;;;;;;;8.50;99.90;;;;;;4977632;28;19922;-80
2024/03/02 02:18:03;;;;;;;;;;;8.60;99.90;;;;;;4966932;28;20004;-80
2024/03/02 02:20:29;;;;;;;;;;;8.60;99.90;;;;;;4962021;28;19917;-79
2024/03/02 02:22:54;;;;;;;;;;;8.60;99.90;;;;;;4928371;28;19933;-80
2024/03/02 02:25:20;;;;;;;;;;;8.50;99.90;;;;;;4947455;28;19996;-80
2024/03/02 02:27:46;;;;;;;;;;;8.50;99.90;;;;;;4959952;28;20552;-80
2024/03/02 02:30:12;;;;;;;;;;;8.60;99.90;;;;;;4961942;28;19913;-80
2024/03/02 02:32:37;;;;;;;;;;;8.60;99.90;;;;;;4947218;28;20004;-80
2024/03/02 02:35:04;;;;;;;;;;;8.60;99.90;;;;;;4961426;28;19921;-80
2024/03/02 02:37:30;;;;;;;;;;;8.50;99.90;;;;;;4948612;28;19969;-80
2024/03/02 02:39:56;;;;;;;;;;;8.60;99.90;;;;;;4980217;28;19922;-80
2024/03/02 02:42:21;;;;;;;;;;;8.50;99.90;;;;;;4964191;28;19917;-79
2024/03/02 02:44:47;;;;;;;;;;;8.50;99.90;;;;;;4964899;28;19917;-79
2024/03/02 02:47:12;;;;;;;;;;;8.50;99.90;;;;;;4948677;28;20009;-79
2024/03/02 02:49:39;;;;;;;;;;;8.50;99.90;;;;;;4960898;28;19929;-79
2024/03/02 02:52:05;;;;;;;;;;;8.50;99.90;;;;;;4965436;28;19929;-79
2024/03/02 02:54:31;;;;;;;;;;;8.50;99.90;;;;;;4980877;28;19917;-80
2024/03/02 02:56:56;;;;;;;;;;;8.50;99.90;;;;;;4963915;28;20029;-80
2024/03/02 02:59:23;;;;;;;;;;;8.50;99.90;;;;;;4964355;28;19921;-79
2024/03/02 03:01:49;;;;;;;;;;;8.50;99.90;;;;;;4979802;28;19918;-79
2024/03/02 03:04:15;;;;;;;;;;;8.50;99.90;;;;;;4965277;28;19932;-80
2024/03/02 03:06:40;;;;;;;;;;;8.50;99.90;;;;;;4947113;28;20587;-79
2024/03/02 03:09:06;;;;;;;;;;;8.50;99.90;;;;;;4976796;28;20279;-79
2024/03/02 03:11:32;;;;;;;;;;;8.40;99.90;;;;;;4980117;28;19955;-79
2024/03/02 03:13:57;;;;;;;;;;;8.50;99.90;;;;;;4978171;28;19920;-79
2024/03/02 03:16:23;;;;;;;;;;;8.50;99.90;;;;;;4975332;28;19922;-80
2024/03/02 03:18:51;;;;;;;;;;;8.50;99.90;;;;;;4995092;28;19914;-79
2024/03/02 03:21:17;;;;;;;;;;;8.50;99.90;;;;;;4979943;28;19972;-79
2024/03/02 03:23:42;;;;;;;;;;;8.50;99.90;;;;;;4976246;28;19926;-79
2024/03/02 03:26:08;;;;;;;;;;;8.50;99.90;;;;;;4993593;28;19934;-80
2024/03/02 03:28:34;;;;;;;;;;;8.50;99.90;;;;;;4979091;28;19918;-79
2024/03/02 03:30:59;;;;;;;;;;;8.50;99.90;;;;;;4962647;28;19925;-79
2024/03/02 03:33:25;;;;;;;;;;;8.50;99.90;;;;;;4961781;28;19936;-79
2024/03/02 03:35:51;;;;;;;;;;;8.50;99.90;;;;;;4963103;28;19917;-79
2024/03/02 03:38:16;;;;;;;;;;;8.50;99.90;;;;;;4979223;28;19918;-79
2024/03/02 03:40:42;;;;;;;;;;;8.50;99.90;;;;;;4987068;28;19952;-79
2024/03/02 03:43:08;;;;;;;;;;;8.50;99.90;;;;;;4982555;28;19914;-79
2024/03/02 03:45:34;;;;;;;;;;;8.50;99.90;;;;;;4995332;28;19913;-80
2024/03/02 03:47:59;;;;;;;;;;;8.50;99.90;;;;;;4975981;28;19928;-80
2024/03/02 03:50:25;;;;;;;;;;;8.50;99.90;;;;;;4943889;28;20016;-80
2024/03/02 03:52:51;;;;;;;;;;;8.50;99.90;;;;;;4956097;28;19918;-80
2024/03/02 03:55:16;;;;;;;;;;;8.50;99.90;;;;;;4960133;28;20275;-79
2024/03/02 03:57:42;;;;;;;;;;;8.50;99.90;;;;;;4962368;28;20256;-80
2024/03/02 04:00:10;;;;;;;;;;;8.40;99.90;;;;;;4968277;28;20009;-80
2024/03/02 04:02:36;;;;;;;;;;;8.40;99.90;;;;;;4962900;28;19917;-80
2024/03/02 04:05:04;;;;;;;;;;;8.40;99.90;;;;;;4969100;28;19941;-79
2024/03/02 04:07:30;;;;;;;;;;;8.40;99.90;;;;;;4951991;28;19918;-80
2024/03/02 04:09:56;;;;;;;;;;;8.40;99.90;;;;;;4989727;28;20020;-79
2024/03/02 04:12:22;;;;;;;;;;;8.40;99.90;;;;;;4947442;28;20029;-80
2024/03/02 04:14:48;;;;;;;;;;;8.40;99.90;;;;;;4978743;28;19921;-80
2024/03/02 04:17:14;;;;;;;;;;;8.40;99.90;;;;;;4972042;28;19921;-80
2024/03/02 04:19:39;;;;;;;;;;;8.40;99.90;;;;;;4978237;28;19964;-79
2024/03/02 04:22:05;;;;;;;;;;;8.40;99.90;;;;;;4978860;28;19945;-80
2024/03/02 04:24:30;;;;;;;;;;;8.40;99.90;;;;;;4979372;28;20004;-80
2024/03/02 04:26:56;;;;;;;;;;;8.40;99.90;;;;;;4972900;28;19917;-79
2024/03/02 04:29:23;;;;;;;;;;;8.40;99.90;;;;;;4982451;28;19925;-80
2024/03/02 04:31:49;;;;;;;;;;;8.40;99.90;;;;;;4948110;28;19970;-79
2024/03/02 04:34:14;;;;;;;;;;;8.40;99.90;;;;;;4975528;28;19957;-80
2024/03/02 04:36:40;;;;;;;;;;;8.40;99.90;;;;;;4980804;28;19937;-79
2024/03/02 04:39:09;;;;;;;;;;;8.40;99.90;;;;;;4996539;28;19928;-80
2024/03/02 04:41:35;;;;;;;;;;;8.40;99.90;;;;;;4998970;28;19925;-80
2024/03/02 04:44:01;;;;;;;;;;;8.30;99.90;;;;;;4984147;28;20275;-79
2024/03/02 04:46:26;;;;;;;;;;;8.30;99.90;;;;;;4962878;28;20029;-79
2024/03/02 04:48:55;;;;;;;;;;;8.30;99.90;;;;;;4978616;28;19996;-79
2024/03/02 04:51:21;;;;;;;;;;;8.30;99.90;;;;;;4979344;28;19913;-79
2024/03/02 04:53:46;;;;;;;;;;;8.20;99.90;;;;;;4998855;28;19945;-80
2024/03/02 04:58:56;;;;;;;;;;;8.20;99.90;;;;;;4981954;28;19913;-80
2024/03/02 05:01:24;;;;;;;;;;;8.20;99.90;;;;;;4981623;28;19977;-80
2024/03/02 05:03:50;;;;;;;;;;;8.20;99.90;;;;;;4965582;28;20362;-79
2024/03/02 05:06:15;;;;;;;;;;;8.20;99.90;;;;;;4949568;28;19922;-80
2024/03/02 05:08:41;;;;;;;;;;;8.20;99.90;;;;;;4949788;28;19914;-79
2024/03/02 05:13:51;;;;;;;;;;;8.20;99.90;;;;;;4984567;28;19918;-80
2024/03/02 05:16:16;;;;;;;;;;;8.10;99.90;;;;;;4949363;28;19922;-80
2024/03/02 05:18:42;;;;;;;;;;;8.10;99.90;;;;;;4961492;28;20251;-80
2024/03/02 05:21:08;;;;;;;;;;;8.10;99.90;;;;;;4962585;28;20299;-80
2024/03/02 05:23:33;;;;;;;;;;;8.10;99.90;;;;;;4953674;28;19928;-80
2024/03/02 05:25:59;;;;;;;;;;;8.00;99.90;;;;;;4978271;28;20005;-80
2024/03/02 05:28:25;;;;;;;;;;;8.10;99.90;;;;;;4962178;28;19929;-79
2024/03/02 05:30:52;;;;;;;;;;;8.10;99.90;;;;;;4958348;29;19914;-80
2024/03/02 05:33:17;;;;;;;;;;;8.10;99.90;;;;;;4911788;29;19919;-79
2024/03/02 05:35:45;;;;;;;;;;;8.10;99.90;;;;;;4960591;28;19918;-79
2024/03/02 05:38:10;;;;;;;;;;;8.10;99.90;;;;;;4930565;28;20353;-80
2024/03/02 05:40:36;;;;;;;;;;;8.10;99.90;;;;;;4945926;28;20017;-79
2024/03/02 05:43:02;;;;;;;;;;;8.10;99.90;;;;;;4960820;28;19918;-80
2024/03/02 05:45:29;;;;;;;;;;;8.00;99.90;;;;;;4930881;28;19953;-80
2024/03/02 05:47:55;;;;;;;;;;;8.00;99.90;;;;;;4961549;28;19918;-80
2024/03/02 05:50:20;;;;;;;;;;;8.00;99.90;;;;;;4967975;28;19914;-79
2024/03/02 05:52:47;;;;;;;;;;;8.00;99.90;;;;;;4934669;28;19918;-79
2024/03/02 05:55:13;;;;;;;;;;;8.00;99.90;;;;;;4941217;29;19919;-79
2024/03/02 05:57:59;;;;;;;;;;;8.00;99.90;;;;;;4925518;28;19929;-79
2024/03/02 06:00:25;;;;;;;;;;;8.00;99.90;;;;;;4963242;28;19943;-79
2024/03/02 06:02:51;;;;;;;;;;;7.90;99.90;;;;;;4959896;28;20351;-79
2024/03/02 06:05:18;;;;;;;;;;;7.90;99.90;;;;;;4929205;28;20020;-79
2024/03/02 06:07:44;;;;;;;;;;;7.90;99.90;;;;;;4960640;28;19925;-80
2024/03/02 06:10:11;;;;;;;;;;;7.90;99.90;;;;;;4931104;28;19941;-80
2024/03/02 06:12:37;;;;;;;;;;;7.90;99.90;;;;;;4946621;28;19977;-80
2024/03/02 06:15:03;;;;;;;;;;;7.80;99.90;;;;;;4946353;28;19918;-80
2024/03/02 06:17:29;;;;;;;;;;;7.80;99.90;;;;;;4968334;28;19918;-80
2024/03/02 06:19:55;;;;;;;;;;;7.70;99.90;;;;;;4942248;29;19978;-80
2024/03/02 06:22:22;;;;;;;;;;;7.70;99.90;;;;;;4929006;28;19915;-80
2024/03/02 06:24:49;;;;;;;;;;;7.70;99.90;;;;;;4965090;28;19918;-80
2024/03/02 06:27:14;;;;;;;;;;;7.70;99.90;;;;;;4981873;28;20577;-80
2024/03/02 06:29:40;;;;;;;;;;;7.70;99.90;;;;;;4941270;28;19960;-80
2024/03/02 06:32:07;;;;;;;;;;;7.70;99.90;;;;;;4932091;28;20209;-80
2024/03/02 06:34:32;;;;;;;;;;;7.70;99.90;;;;;;4979639;28;19937;-80
2024/03/02 06:36:58;;;;;;;;;;;7.70;99.90;;;;;;4976865;28;19922;-80
2024/03/02 06:39:24;;;;;;;;;;;7.70;99.90;;;;;;4962952;28;19929;-80
2024/03/02 06:41:49;;;;;;;;;;;7.70;99.90;;;;;;4980379;28;20012;-80
2024/03/02 06:44:15;;;;;;;;;;;7.70;99.90;;;;;;4957396;28;19925;-80
2024/03/02 06:46:40;;;;;;;;;;;7.70;99.90;;;;;;4963789;28;19924;-80
2024/03/02 06:49:06;;;;;;;;;;;7.70;99.90;;;;;;4947239;28;19933;-79
2024/03/02 06:51:35;;;;;;;;;;;7.70;99.90;;;;;;4963687;28;20389;-78
2024/03/02 06:54:01;;;;;;;;;;;7.70;99.90;;;;;;4996161;28;19925;-79
2024/03/02 06:56:26;;;;;;;;;;;7.70;99.90;;;;;;4962808;28;19925;-79
2024/03/02 06:58:52;;;;;;;;;;;7.70;99.90;;;;;;4980411;28;20651;-79
2024/03/02 07:01:17;;;;;;;;;;;7.70;99.90;;;;;;4979870;28;20008;-79
2024/03/02 07:03:43;;;;;;;;;;;7.70;99.90;;;;;;4979868;28;19918;-79
2024/03/02 07:06:09;;;;;;;;;;;7.70;99.90;;;;;;4992533;28;19960;-79
2024/03/02 07:08:35;;;;;;;;;;;7.70;99.90;;;;;;4970555;28;19960;-78
2024/03/02 07:11:00;;;;;;;;;;;7.70;99.90;;;;;;4960787;28;19940;-80
2024/03/02 07:13:27;;;;;;;;;;;7.70;99.90;;;;;;4954455;28;19913;-79
2024/03/02 07:18:28;;;;;;;;;;;7.80;99.90;;;;;;4965188;28;20000;-79
2024/03/02 07:20:55;;;;;;;;;;;7.80;99.90;;;;;;4947794;28;20005;-79
2024/03/02 07:23:24;;;;;;;;;;;7.90;99.90;;;;;;4995370;28;19925;-80
2024/03/02 07:25:49;;;;;;;;;;;7.90;99.90;;;;;;4964992;28;20634;-78
2024/03/02 07:28:15;;;;;;;;;;;8.00;99.90;;;;;;4962380;28;19919;-78
2024/03/02 07:30:41;;;;;;;;;;;8.10;99.90;;;;;;4960240;28;19921;-78
2024/03/02 07:33:07;;;;;;;;;;;8.10;99.90;;;;;;4944718;28;19922;-78
2024/03/02 07:35:33;;;;;;;;;;;8.10;99.90;;;;;;4994488;28;19913;-79
2024/03/02 07:38:00;;;;;;;;;;;8.10;99.90;;;;;;4978643;28;19927;-78
2024/03/02 07:40:26;;;;;;;;;;;8.10;99.90;;;;;;4978147;28;19918;-78
2024/03/02 07:42:51;;;;;;;;;;;8.20;99.90;;;;;;4946284;28;19944;-78
2024/03/02 07:45:17;;;;;;;;;;;8.20;99.90;;;;;;4946195;28;19945;-79
2024/03/02 07:47:43;;;;;;;;;;;8.30;99.90;;;;;;4962490;28;19918;-78
2024/03/02 07:50:09;;;;;;;;;;;8.30;99.90;;;;;;4962668;28;19914;-79
2024/03/02 07:52:34;;;;;;;;;;;8.30;99.90;;;;;;4963177;28;19918;-79
2024/03/02 07:55:00;;;;;;;;;;;8.30;99.90;;;;;;4954583;28;20004;-78
2024/03/02 07:57:26;;;;;;;;;;;8.40;99.90;;;;;;4962266;28;19964;-78
2024/03/02 07:59:51;;;;;;;;;;;8.40;99.90;;;;;;4962297;28;19917;-78
2024/03/02 08:02:18;;;;;;;;;;;8.40;99.90;;;;;;4978028;28;20027;-78
2024/03/02 08:04:45;;;;;;;;;;;8.50;99.90;;;;;;4978231;28;19913;-78
2024/03/02 08:07:11;;;;;;;;;;;8.50;99.90;;;;;;4978663;28;20335;-78
2024/03/02 08:09:38;;;;;;;;;;;8.60;99.90;;;;;;4979080;28;19928;-78
2024/03/02 08:12:04;;;;;;;;;;;8.60;99.90;;;;;;4978579;28;20001;-78
2024/03/02 08:14:30;;;;;;;;;;;8.70;99.90;;;;;;4971358;28;20004;-78
2024/03/02 08:16:56;;;;;;;;;;;8.70;99.90;;;;;;4961014;28;20334;-78
2024/03/02 08:19:22;;;;;;;;;;;8.80;99.90;;;;;;4978188;28;19913;-78
2024/03/02 08:21:48;;;;;;;;;;;8.90;99.90;;;;;;4962005;28;19913;-78
2024/03/02 08:24:13;;;;;;;;;;;8.90;99.90;;;;;;4961123;28;19926;-78
2024/03/02 08:26:39;;;;;;;;;;;9.00;99.90;;;;;;4958165;28;20417;-78
2024/03/02 08:29:04;;;;;;;;;;;9.00;99.90;;;;;;4958561;28;20298;-78
2024/03/02 08:31:30;;;;;;;;;;;9.10;99.90;;;;;;4975091;28;20370;-79
2024/03/02 08:33:56;;;;;;;;;;;9.10;99.90;;;;;;4971110;28;19934;-78
2024/03/02 08:36:22;;;;;;;;;;;9.10;99.90;;;;;;4955644;28;19923;-79
2024/03/02 08:38:49;;;;;;;;;;;9.20;99.90;;;;;;4956028;29;19952;-79
2024/03/02 08:41:15;;;;;;;;;;;9.30;99.90;;;;;;4955627;28;19915;-79
2024/03/02 08:43:42;;;;;;;;;;;9.30;99.90;;;;;;4958097;28;20532;-79
2024/03/02 08:46:07;;;;;;;;;;;9.40;99.90;;;;;;4961653;28;20750;-79
2024/03/02 08:48:33;;;;;;;;;;;9.40;99.90;;;;;;4940799;28;19949;-78
2024/03/02 08:51:00;;;;;;;;;;;9.40;99.90;;;;;;4942649;28;19960;-78
2024/03/02 08:53:26;;;;;;;;;;;9.50;99.90;;;;;;4958545;28;19918;-79
2024/03/02 08:55:51;;;;;;;;;;;9.50;99.90;;;;;;4923431;29;20317;-78
2024/03/02 08:58:17;;;;;;;;;;;9.60;99.90;;;;;;4956739;28;19940;-78
2024/03/02 09:00:44;;;;;;;;;;;9.60;99.90;;;;;;4974839;28;19922;-79
2024/03/02 09:03:10;;;;;;;;;;;9.70;99.90;;;;;;4942728;28;19925;-78
2024/03/02 09:05:35;;;;;;;;;;;9.80;99.90;;;;;;4974288;28;19961;-78
2024/03/02 09:08:03;;;;;;;;;;;9.80;99.90;;;;;;4925732;28;19918;-78
2024/03/02 09:10:29;;;;;;;;;;;9.90;99.90;;;;;;4958696;28;20357;-78
2024/03/02 09:12:55;;;;;;;;;;;9.90;99.90;;;;;;4958625;28;19918;-78
2024/03/02 09:15:21;;;;;;;;;;;10.00;99.90;;;;;;4974773;28;19925;-79
2024/03/02 09:17:46;;;;;;;;;;;10.10;99.90;;;;;;4957863;28;19922;-78
2024/03/02 09:20:13;;;;;;;;;;;10.20;99.90;;;;;;4925938;28;19914;-78
2024/03/02 09:22:39;;;;;;;;;;;10.20;99.90;;;;;;4945288;29;20026;-78
2024/03/02 09:25:07;;;;;;;;;;;10.20;99.90;;;;;;4939525;29;20723;-78
2024/03/02 09:27:32;;;;;;;;;;;10.30;99.90;;;;;;4940777;28;19929;-78
2024/03/02 09:29:58;;;;;;;;;;;10.30;99.90;;;;;;4942626;28;19914;-78
2024/03/02 09:32:24;;;;;;;;;;;10.40;99.90;;;;;;4958867;28;19921;-78
2024/03/02 09:34:49;;;;;;;;;;;10.40;99.90;;;;;;4942365;28;19945;-78
2024/03/02 09:37:15;;;;;;;;;;;10.50;99.90;;;;;;4946555;28;19973;-78
2024/03/02 09:39:43;;;;;;;;;;;10.50;99.90;;;;;;4962053;28;19914;-78
2024/03/02 09:42:08;;;;;;;;;;;10.60;99.90;;;;;;4961698;28;19937;-79
2024/03/02 09:44:34;;;;;;;;;;;10.60;99.90;;;;;;4945720;28;19936;-79
2024/03/02 09:46:59;;;;;;;;;;;10.60;99.90;;;;;;4946317;28;19960;-79
2024/03/02 09:49:25;;;;;;;;;;;10.70;99.90;;;;;;4962410;28;19918;-78
2024/03/02 09:51:51;;;;;;;;;;;10.80;99.90;;;;;;4961184;28;19914;-78
2024/03/02 09:54:17;;;;;;;;;;;10.80;99.90;;;;;;4945855;28;20247;-79
2024/03/02 09:56:43;;;;;;;;;;;10.90;99.90;;;;;;4930044;28;19957;-79
2024/03/02 09:59:08;;;;;;;;;;;11.00;99.90;;;;;;4945419;28;19949;-79
2024/03/02 10:01:34;;;;;;;;;;;11.10;99.90;;;;;;4944714;28;19929;-78
2024/03/02 10:04:00;;;;;;;;;;;11.20;99.90;;;;;;4944016;28;19918;-79
2024/03/02 10:06:26;;;;;;;;;;;11.20;99.90;;;;;;4951615;28;19922;-79
2024/03/02 10:08:54;;;;;;;;;;;11.30;99.90;;;;;;4962502;28;19917;-79
2024/03/02 10:11:28;;;;;;;;;;;11.40;99.90;;;;;;4945058;28;19918;-79
2024/03/02 10:14:13;;;;;;;;;;;11.40;99.90;;;;;;4961359;28;19918;-79
2024/03/02 10:16:39;;;;;;;;;;;11.50;99.90;;;;;;4961239;28;19922;-79
2024/03/02 10:19:14;;;;;;;;;;;11.50;99.90;;;;;;4929536;28;19918;-79
2024/03/02 10:21:41;;;;;;;;;;;11.50;99.90;;;;;;4933978;28;20270;-79
2024/03/02 10:24:07;;;;;;;;;;;11.60;99.90;;;;;;4977043;28;19934;-79
2024/03/02 10:26:32;;;;;;;;;;;11.60;99.90;;;;;;4967709;28;19962;-79
2024/03/02 10:28:59;;;;;;;;;;;11.70;99.90;;;;;;4945616;28;19950;-79
2024/03/02 10:31:27;;;;;;;;;;;11.80;99.90;;;;;;4945357;28;19918;-79
2024/03/02 10:33:57;;;;;;;;;;;11.90;99.90;;;;;;4960599;28;19918;-79
2024/03/02 10:36:25;;;;;;;;;;;12.00;99.90;;;;;;4957891;28;19922;-78
2024/03/02 10:38:54;;;;;;;;;;;12.10;99.90;;;;;;4944770;28;19919;-79
2024/03/02 10:41:23;;;;;;;;;;;12.20;99.90;;;;;;4938518;28;19921;-78
2024/03/02 10:43:49;;;;;;;;;;;12.30;99.90;;;;;;4960338;28;19922;-78
2024/03/02 10:46:15;;;;;;;;;;;12.40;99.90;;;;;;4928878;28;19914;-78
2024/03/02 10:48:41;;;;;;;;;;;12.70;99.90;;;;;;4943469;28;19929;-79
2024/03/02 10:51:07;;;;;;;;;;;12.80;99.90;;;;;;4959996;28;20263;-79
2024/03/02 10:53:32;;;;;;;;;;;12.90;99.90;;;;;;4943946;28;19918;-78
2024/03/02 10:56:02;;;;;;;;;;;13.10;99.90;;;;;;4960605;28;19961;-78
2024/03/02 10:58:31;;;;;;;;;;;13.30;99.90;;;;;;4928837;28;19925;-79
2024/03/02 11:00:57;;;;;;;;;;;13.50;99.90;;;;;;4947201;28;19921;-78
2024/03/02 11:03:22;;;;;;;;;;;13.50;99.90;;;;;;4962923;28;20428;-79
2024/03/02 11:05:48;;;;;;;;;;;13.60;99.90;;;;;;4963275;28;19917;-79
2024/03/02 11:08:15;;;;;;;;;;;13.60;99.90;;;;;;4963334;28;19913;-79
2024/03/02 11:10:41;;;;;;;;;;;13.70;99.90;;;;;;4975905;28;19969;-79
2024/03/02 11:13:11;;;;;;;;;;;13.70;99.90;;;;;;4960178;28;20648;-79
2024/03/02 11:15:40;;;;;;;;;;;13.70;99.90;;;;;;4975888;28;20207;-79
2024/03/02 11:18:08;;;;;;;;;;;13.70;99.90;;;;;;4978898;28;20283;-79
2024/03/02 11:20:38;;;;;;;;;;;13.70;99.90;;;;;;4979468;28;20008;-78
2024/03/02 11:23:07;;;;;;;;;;;13.70;99.90;;;;;;4939974;28;19929;-79
2024/03/02 11:25:33;;;;;;;;;;;13.70;99.90;;;;;;4960837;28;19914;-80
2024/03/02 11:28:02;;;;;;;;;;;13.50;99.90;;;;;;4929589;28;20049;-79
2024/03/02 11:30:31;;;;;;;;;;;13.50;99.90;;;;;;4935579;28;19922;-79
2024/03/02 11:32:57;;;;;;;;;;;13.50;99.90;;;;;;4948979;28;19918;-79
2024/03/02 11:35:26;;;;;;;;;;;13.40;99.90;;;;;;4959757;28;19918;-78
2024/03/02 11:37:52;;;;;;;;;;;13.30;99.90;;;;;;4959223;28;19918;-78
2024/03/02 11:40:24;;;;;;;;;;;13.30;99.90;;;;;;4974818;28;19914;-79
2024/03/02 11:42:50;;;;;;;;;;;13.20;99.90;;;;;;4959220;28;19925;-79
2024/03/02 11:45:27;;;;;;;;;;;13.20;99.90;;;;;;4943987;28;19914;-79
2024/03/02 11:47:59;;;;;;;;;;;13.20;99.90;;;;;;4960041;28;20311;-79
2024/03/02 11:50:31;;;;;;;;;;;13.10;99.90;;;;;;4948430;29;19915;-79
2024/03/02 11:52:57;;;;;;;;;;;13.20;99.90;;;;;;4940159;28;20390;-79
2024/03/02 11:55:24;;;;;;;;;;;13.20;99.90;;;;;;4975790;28;20251;-79
2024/03/02 11:57:51;;;;;;;;;;;13.20;99.90;;;;;;4958865;28;20016;-79
2024/03/02 12:00:17;;;;;;;;;;;13.30;99.90;;;;;;4943213;28;20393;-79
2024/03/02 12:02:47;;;;;;;;;;;13.20;99.90;;;;;;4959043;28;19918;-78
2024/03/02 12:05:13;;;;;;;;;;;13.30;99.90;;;;;;4939883;29;19918;-78
2024/03/02 12:07:38;;;;;;;;;;;13.30;99.90;;;;;;4948012;28;19914;-78
2024/03/02 12:10:05;;;;;;;;;;;13.30;99.90;;;;;;4927496;28;19918;-78
2024/03/02 12:12:31;;;;;;;;;;;13.40;99.90;;;;;;4976666;28;20239;-78
2024/03/02 12:15:00;;;;;;;;;;;13.50;99.90;;;;;;4961974;28;19924;-78
2024/03/02 12:17:27;;;;;;;;;;;13.60;99.90;;;;;;4962379;28;19925;-78
2024/03/02 12:19:53;;;;;;;;;;;13.70;99.90;;;;;;4974791;28;19914;-78
2024/03/02 12:22:19;;;;;;;;;;;13.70;99.90;;;;;;4946522;28;19929;-78
2024/03/02 12:24:45;;;;;;;;;;;13.80;99.90;;;;;;4962891;28;19921;-78
2024/03/02 12:27:11;;;;;;;;;;;13.90;99.90;;;;;;4978124;28;19973;-78
2024/03/02 12:29:37;;;;;;;;;;;14.00;99.90;;;;;;4946007;28;20235;-78
2024/03/02 12:32:03;;;;;;;;;;;14.30;99.90;;;;;;4976232;28;19976;-79
2024/03/02 12:34:28;;;;;;;;;;;14.50;99.90;;;;;;4962130;28;19929;-77
2024/03/02 12:36:54;;;;;;;;;;;14.60;99.90;;;;;;4977522;28;20342;-78
2024/03/02 12:39:20;;;;;;;;;;;14.80;99.90;;;;;;4978425;28;19913;-79
2024/03/02 12:41:46;;;;;;;;;;;15.10;99.90;;;;;;4962345;28;19918;-78
2024/03/02 12:44:11;;;;;;;;;;;15.30;99.90;;;;;;4962216;28;20282;-79
2024/03/02 12:46:37;;;;;;;;;;;15.90;99.90;;;;;;4962200;28;19918;-79
2024/03/02 12:49:10;;;;;;;;;;;16.30;99.90;;;;;;4948518;28;19954;-79
2024/03/02 12:51:36;;;;;;;;;;;16.50;99.90;;;;;;4982896;28;19949;-79
2024/03/02 12:54:03;;;;;;;;;;;16.80;99.90;;;;;;4966625;28;19921;-79
2024/03/02 12:56:29;;;;;;;;;;;17.40;99.90;;;;;;4975299;28;19918;-80
2024/03/02 12:58:55;;;;;;;;;;;17.90;99.40;;;;;;4974162;28;20306;-79
2024/03/02 13:01:21;;;;;;;;;;;18.10;99.00;;;;;;4962944;28;19917;-79
2024/03/02 13:03:53;;;;;;;;;;;18.70;98.20;;;;;;4979550;28;20242;-79
2024/03/02 13:06:19;;;;;;;;;;;18.50;96.30;;;;;;4980623;28;19914;-79
2024/03/02 13:08:46;;;;;;;;;;;18.70;95.80;;;;;;4963433;28;20364;-79
2024/03/02 13:11:11;;;;;;;;;;;18.70;96.00;;;;;;4966855;28;19961;-79
2024/03/02 13:13:38;;;;;;;;;;;18.60;94.60;;;;;;4986724;28;19917;-80
2024/03/02 13:16:06;;;;;;;;;;;18.60;95.70;;;;;;4979635;28;20327;-79
2024/03/02 13:18:31;;;;;;;;;;;18.40;94.30;;;;;;4947709;28;19918;-79
2024/03/02 13:20:57;;;;;;;;;;;18.10;94.60;;;;;;4975758;28;19918;-79
2024/03/02 13:23:23;;;;;;;;;;;18.00;94.60;;;;;;4961080;28;19926;-79
2024/03/02 13:25:50;;;;;;;;;;;17.80;96.10;;;;;;4928574;29;20466;-80
2024/03/02 13:28:17;;;;;;;;;;;18.00;96.10;;;;;;4958829;28;19918;-78
2024/03/02 13:30:43;;;;;;;;;;;18.20;95.50;;;;;;4949846;28;19914;-78
2024/03/02 13:33:09;;;;;;;;;;;17.80;95.00;;;;;;4967135;28;20009;-78
2024/03/02 13:35:34;;;;;;;;;;;17.40;96.30;;;;;;4958678;28;20433;-79
2024/03/02 13:38:00;;;;;;;;;;;17.50;96.30;;;;;;4982590;28;19921;-78
2024/03/02 13:40:26;;;;;;;;;;;17.40;95.80;;;;;;4952648;29;19935;-78
2024/03/02 13:42:53;;;;;;;;;;;17.30;96.80;;;;;;4945138;28;19938;-78
2024/03/02 13:45:19;;;;;;;;;;;17.50;95.70;;;;;;4964331;28;20304;-79
2024/03/02 13:47:44;;;;;;;;;;;17.40;95.60;;;;;;4948739;28;20629;-78
2024/03/02 13:50:10;;;;;;;;;;;17.30;95.70;;;;;;4960542;28;19921;-78
2024/03/02 13:52:36;;;;;;;;;;;17.10;96.50;;;;;;4948148;28;20286;-78
2024/03/02 13:55:02;;;;;;;;;;;17.10;96.10;;;;;;4981692;28;19939;-78
2024/03/02 13:57:27;;;;;;;;;;;16.90;96.10;;;;;;4955828;29;19973;-79
2024/03/02 13:59:54;;;;;;;;;;;16.90;96.70;;;;;;4959394;29;20252;-78
2024/03/02 14:02:20;;;;;;;;;;;16.70;96.30;;;;;;4926147;29;20359;-78
2024/03/02 14:04:45;;;;;;;;;;;16.60;96.40;;;;;;4957541;28;19913;-78
2024/03/02 14:07:12;;;;;;;;;;;16.50;96.30;;;;;;4957064;29;19929;-78
2024/03/02 14:09:39;;;;;;;;;;;16.70;96.50;;;;;;4952298;29;19922;-79
2024/03/02 14:12:05;;;;;;;;;;;16.80;97.40;;;;;;4913043;29;19918;-78
2024/03/02 14:14:30;;;;;;;;;;;17.00;97.20;;;;;;4941105;29;19918;-78
2024/03/02 14:16:56;;;;;;;;;;;17.40;97.40;;;;;;4953739;28;19926;-79
2024/03/02 14:19:22;;;;;;;;;;;17.80;96.50;;;;;;4978179;28;20497;-78
2024/03/02 14:21:47;;;;;;;;;;;18.10;95.90;;;;;;4960985;28;20020;-78
2024/03/02 14:24:13;;;;;;;;;;;18.40;95.70;;;;;;4934143;28;19933;-79
2024/03/02 14:26:39;;;;;;;;;;;18.30;95.00;;;;;;4978527;28;19914;-78
2024/03/02 14:29:05;;;;;;;;;;;18.40;94.40;;;;;;4944804;28;19973;-78